createdAt,value
2019-04-16T00:00:26.563Z,7.40
2019-04-16T00:01:26.541Z,7.10
2019-04-16T00:02:26.538Z,7.30
2019-04-16T00:03:26.561Z,6.70
2019-04-16T00:04:26.530Z,7.60
2019-04-16T00:05:27.852Z,7.30
2019-04-16T00:06:26.513Z,7.30
2019-04-16T00:07:26.515Z,6.60
2019-04-16T00:08:28.051Z,6.70
2019-04-16T00:09:26.497Z,7.30
2019-04-16T00:10:26.510Z,7.00
2019-04-16T00:11:26.490Z,7.10
2019-04-16T00:12:26.477Z,7.20
2019-04-16T00:13:26.509Z,7.20
2019-04-16T00:14:26.469Z,7.10
2019-04-16T00:15:26.466Z,7.20
2019-04-16T00:16:26.458Z,6.90
2019-04-16T00:17:26.453Z,7.40
2019-04-16T00:18:26.470Z,7.40
2019-04-16T00:19:26.442Z,7.10
2019-04-16T00:20:26.442Z,7.10
2019-04-16T00:21:26.427Z,7.50
2019-04-16T00:22:26.417Z,7.10
2019-04-16T00:23:26.468Z,7.20
2019-04-16T00:24:26.409Z,7.70
2019-04-16T00:25:26.402Z,7.10
2019-04-16T00:26:27.437Z,7.30
2019-04-16T00:27:28.721Z,7.20
2019-04-16T00:28:30.476Z,6.90
2019-04-16T00:29:26.377Z,7.20
2019-04-16T00:30:26.374Z,7.80
2019-04-16T00:31:26.364Z,7.80
2019-04-16T00:32:26.358Z,7.70
2019-04-16T00:33:26.402Z,7.50
2019-04-16T00:34:26.347Z,7.50
2019-04-16T00:35:26.345Z,7.40
2019-04-16T00:36:26.335Z,7.40
2019-04-16T00:37:26.336Z,7.60
2019-04-16T00:38:39.781Z,7.70
2019-04-16T00:39:26.346Z,7.60
2019-04-16T00:40:27.207Z,7.40
2019-04-16T00:41:26.307Z,8.00
2019-04-16T00:42:26.298Z,7.50
2019-04-16T00:43:26.291Z,7.60
2019-04-16T00:44:26.318Z,7.70
2019-04-16T00:45:26.284Z,7.80
2019-04-16T00:46:26.280Z,7.80
2019-04-16T00:47:26.265Z,8.40
2019-04-16T00:48:26.266Z,8.10
2019-04-16T00:49:27.097Z,7.90
2019-04-16T00:50:26.255Z,8.20
2019-04-16T00:51:26.239Z,7.70
2019-04-16T00:52:26.240Z,8.70
2019-04-16T00:53:26.231Z,8.70
2019-04-16T00:54:26.255Z,7.80
2019-04-16T00:55:26.222Z,8.50
2019-04-16T00:56:26.210Z,8.40
2019-04-16T00:57:26.231Z,8.60
2019-04-16T00:58:26.203Z,8.20
2019-04-16T00:59:26.224Z,8.80
2019-04-16T01:00:27.622Z,8.30
2019-04-16T01:01:26.178Z,8.20
2019-04-16T01:02:26.177Z,8.70
2019-04-16T01:03:26.183Z,8.80
2019-04-16T01:04:26.163Z,8.60
2019-04-16T01:05:26.181Z,8.70
2019-04-16T01:06:26.147Z,8.80
2019-04-16T01:07:26.204Z,10.00
2019-04-16T01:08:26.134Z,9.00
2019-04-16T01:09:26.132Z,9.50
2019-04-16T01:10:26.151Z,9.50
2019-04-16T01:11:26.115Z,8.60
2019-04-16T01:12:26.113Z,8.60
2019-04-16T01:13:26.104Z,10.00
2019-04-16T01:14:26.744Z,9.10
2019-04-16T01:15:26.118Z,9.00
2019-04-16T01:16:26.083Z,11.20
2019-04-16T01:17:26.090Z,9.70
2019-04-16T01:18:26.073Z,9.70
2019-04-16T01:19:26.058Z,9.00
2019-04-16T01:20:26.088Z,8.70
2019-04-16T01:21:26.051Z,8.90
2019-04-16T01:22:26.051Z,9.20
2019-04-16T01:23:26.038Z,9.30
2019-04-16T01:24:26.031Z,9.10
2019-04-16T01:25:26.054Z,8.40
2019-04-16T01:26:26.877Z,9.00
2019-04-16T01:27:28.569Z,9.20
2019-04-16T01:28:26.011Z,8.80
2019-04-16T01:29:25.996Z,9.30
2019-04-16T01:30:26.025Z,9.20
2019-04-16T01:31:25.983Z,9.30
2019-04-16T01:32:25.985Z,9.60
2019-04-16T01:33:25.979Z,8.80
2019-04-16T01:34:25.962Z,9.30
2019-04-16T01:35:25.986Z,9.60
2019-04-16T01:36:25.951Z,9.20
2019-04-16T01:37:26.534Z,9.50
2019-04-16T01:38:27.915Z,8.70
2019-04-16T01:39:25.931Z,9.20
2019-04-16T01:40:25.955Z,9.60
2019-04-16T01:41:25.919Z,8.80
2019-04-16T01:42:25.911Z,9.10
2019-04-16T01:43:26.470Z,9.40
2019-04-16T01:44:28.628Z,8.80
2019-04-16T01:45:29.609Z,9.20
2019-04-16T01:46:25.915Z,8.50
2019-04-16T01:47:25.896Z,8.90
2019-04-16T01:48:25.871Z,8.90
2019-04-16T01:49:25.866Z,9.50
2019-04-16T01:50:25.871Z,8.60
2019-04-16T01:51:25.891Z,8.70
2019-04-16T01:52:25.849Z,8.30
2019-04-16T01:53:25.838Z,8.60
2019-04-16T01:54:25.836Z,9.00
2019-04-16T01:55:26.476Z,8.70
2019-04-16T01:56:28.795Z,8.60
2019-04-16T01:57:28.335Z,8.60
2019-04-16T01:58:25.803Z,9.00
2019-04-16T01:59:25.800Z,9.20
2019-04-16T02:00:25.792Z,9.00
2019-04-16T02:01:25.812Z,8.50
2019-04-16T02:02:25.782Z,8.90
2019-04-16T02:03:25.775Z,8.80
2019-04-16T02:04:25.759Z,9.30
2019-04-16T02:05:25.755Z,8.40
2019-04-16T02:06:26.600Z,9.00
2019-04-16T02:07:27.965Z,9.10
2019-04-16T02:08:28.284Z,9.10
2019-04-16T02:09:25.727Z,8.80
2019-04-16T02:10:25.728Z,8.50
2019-04-16T02:11:25.742Z,8.60
2019-04-16T02:12:25.711Z,8.80
2019-04-16T02:13:25.703Z,9.30
2019-04-16T02:14:25.695Z,10.10
2019-04-16T02:15:25.687Z,9.30
2019-04-16T02:16:26.013Z,8.90
2019-04-16T02:17:27.013Z,9.50
2019-04-16T02:18:29.478Z,9.60
2019-04-16T02:19:25.663Z,9.00
2019-04-16T02:20:25.655Z,10.10
2019-04-16T02:21:25.676Z,9.00
2019-04-16T02:22:25.639Z,8.50
2019-04-16T02:23:25.632Z,9.40
2019-04-16T02:24:25.629Z,9.70
2019-04-16T02:25:25.726Z,9.30
2019-04-16T02:26:25.639Z,9.20
2019-04-16T02:27:26.231Z,9.40
2019-04-16T02:28:28.434Z,9.50
2019-04-16T02:29:29.469Z,9.30
2019-04-16T02:30:25.584Z,9.20
2019-04-16T02:31:25.610Z,9.50
2019-04-16T02:32:25.578Z,9.10
2019-04-16T02:33:25.559Z,9.20
2019-04-16T02:34:25.567Z,9.10
2019-04-16T02:35:25.551Z,9.50
2019-04-16T02:36:25.546Z,8.20
2019-04-16T02:37:25.589Z,8.70
2019-04-16T02:38:25.528Z,9.00
2019-04-16T02:39:46.318Z,8.80
2019-04-16T02:40:25.520Z,8.60
2019-04-16T02:41:25.508Z,9.20
2019-04-16T02:42:30.736Z,8.80
2019-04-16T02:43:25.507Z,9.20
2019-04-16T02:44:25.487Z,9.10
2019-04-16T02:45:25.498Z,9.00
2019-04-16T02:46:30.905Z,9.50
2019-04-16T02:47:25.513Z,9.00
2019-04-16T02:48:25.460Z,9.10
2019-04-16T02:49:25.458Z,9.50
2019-04-16T02:50:30.238Z,9.30
2019-04-16T02:51:25.436Z,9.20
2019-04-16T02:52:25.459Z,8.90
2019-04-16T02:53:25.424Z,8.70
2019-04-16T02:54:32.407Z,6.90
2019-04-16T02:55:25.413Z,5.20
2019-04-16T02:56:25.409Z,7.20
2019-04-16T02:57:26.618Z,9.10
2019-04-16T02:58:25.387Z,8.70
2019-04-16T02:59:25.381Z,7.90
2019-04-16T03:00:25.374Z,9.10
2019-04-16T03:01:25.368Z,9.20
2019-04-16T03:02:25.387Z,9.40
2019-04-16T03:03:25.692Z,8.90
2019-04-16T03:04:27.006Z,8.70
2019-04-16T03:05:26.528Z,8.80
2019-04-16T03:06:25.331Z,8.80
2019-04-16T03:07:25.351Z,8.70
2019-04-16T03:08:25.320Z,8.50
2019-04-16T03:09:25.314Z,9.10
2019-04-16T03:10:25.307Z,9.10
2019-04-16T03:11:25.297Z,9.10
2019-04-16T03:12:25.316Z,9.00
2019-04-16T03:13:25.289Z,9.00
2019-04-16T03:14:29.806Z,8.50
2019-04-16T03:15:25.271Z,9.10
2019-04-16T03:16:25.261Z,8.90
2019-04-16T03:17:25.300Z,11.10
2019-04-16T03:18:25.247Z,9.30
2019-04-16T03:19:25.238Z,9.50
2019-04-16T03:20:25.237Z,9.60
2019-04-16T03:21:27.393Z,9.20
2019-04-16T03:22:25.243Z,9.40
2019-04-16T03:23:25.211Z,9.50
2019-04-16T03:24:25.231Z,9.20
2019-04-16T03:25:25.205Z,9.10
2019-04-16T03:26:25.183Z,9.40
2019-04-16T03:27:25.214Z,8.20
2019-04-16T03:28:27.350Z,9.10
2019-04-16T03:29:27.535Z,9.60
2019-04-16T03:30:25.161Z,9.20
2019-04-16T03:31:25.153Z,8.70
2019-04-16T03:32:33.473Z,8.70
2019-04-16T03:33:25.140Z,9.10
2019-04-16T03:34:25.130Z,8.80
2019-04-16T03:35:26.389Z,9.10
2019-04-16T03:36:26.469Z,8.90
2019-04-16T03:37:25.121Z,9.60
2019-04-16T03:38:25.131Z,10.70
2019-04-16T03:39:25.096Z,9.70
2019-04-16T03:40:25.943Z,10.50
2019-04-16T03:41:25.813Z,11.00
2019-04-16T03:42:27.261Z,14.90
2019-04-16T03:43:25.088Z,14.10
2019-04-16T03:44:25.061Z,10.80
2019-04-16T03:45:25.047Z,11.70
2019-04-16T03:46:25.043Z,11.90
2019-04-16T03:47:25.054Z,12.20
2019-04-16T03:48:25.064Z,11.50
2019-04-16T03:49:27.776Z,11.50
2019-04-16T03:50:25.026Z,10.90
2019-04-16T03:51:25.011Z,9.60
2019-04-16T03:52:25.019Z,10.40
2019-04-16T03:53:25.019Z,11.20
2019-04-16T03:54:24.984Z,11.40
2019-04-16T03:55:26.320Z,11.40
2019-04-16T03:56:27.519Z,11.60
2019-04-16T03:57:24.983Z,10.10
2019-04-16T03:58:24.985Z,10.40
2019-04-16T03:59:24.947Z,9.70
2019-04-16T04:00:24.956Z,10.20
2019-04-16T04:01:24.930Z,10.70
2019-04-16T04:02:24.923Z,10.90
2019-04-16T04:03:26.101Z,11.10
2019-04-16T04:04:28.976Z,12.40
2019-04-16T04:05:24.898Z,11.90
2019-04-16T04:06:24.899Z,12.10
2019-04-16T04:07:24.934Z,12.60
2019-04-16T04:08:24.915Z,11.20
2019-04-16T04:09:24.878Z,11.00
2019-04-16T04:10:30.955Z,10.20
2019-04-16T04:11:24.854Z,10.40
2019-04-16T04:12:27.674Z,9.70
2019-04-16T04:13:24.879Z,9.00
2019-04-16T04:14:24.834Z,9.90
2019-04-16T04:15:26.327Z,10.10
2019-04-16T04:16:24.819Z,11.10
2019-04-16T04:17:24.817Z,11.10
2019-04-16T04:18:24.845Z,11.30
2019-04-16T04:19:24.802Z,12.40
2019-04-16T04:20:24.806Z,11.60
2019-04-16T04:21:24.782Z,11.50
2019-04-16T04:22:25.796Z,11.10
2019-04-16T04:23:25.499Z,12.40
2019-04-16T04:24:24.767Z,13.30
2019-04-16T04:25:24.750Z,26.40
2019-04-16T04:26:24.743Z,16.40
2019-04-16T04:27:24.737Z,16.50
2019-04-16T04:28:24.761Z,14.90
2019-04-16T04:29:24.996Z,13.80
2019-04-16T04:30:25.755Z,34.00
2019-04-16T04:31:24.706Z,13.80
2019-04-16T04:32:24.707Z,14.90
2019-04-16T04:33:24.747Z,12.60
2019-04-16T04:34:24.691Z,17.10
2019-04-16T04:35:24.682Z,12.10
2019-04-16T04:36:26.816Z,12.90
2019-04-16T04:37:24.662Z,15.30
2019-04-16T04:38:24.659Z,12.60
2019-04-16T04:39:24.675Z,12.10
2019-04-16T04:40:24.656Z,11.40
2019-04-16T04:41:24.629Z,10.60
2019-04-16T04:42:25.541Z,10.70
2019-04-16T04:43:24.629Z,10.20
2019-04-16T04:44:24.643Z,11.50
2019-04-16T04:45:24.602Z,9.70
2019-04-16T04:46:24.604Z,13.00
2019-04-16T04:47:24.595Z,18.00
2019-04-16T04:48:24.587Z,14.30
2019-04-16T04:49:24.599Z,14.10
2019-04-16T04:50:24.567Z,13.40
2019-04-16T04:51:24.567Z,11.70
2019-04-16T04:52:27.283Z,10.50
2019-04-16T04:53:24.558Z,11.20
2019-04-16T04:54:24.566Z,12.10
2019-04-16T04:55:26.901Z,10.50
2019-04-16T04:56:27.690Z,12.30
2019-04-16T04:57:24.536Z,13.90
2019-04-16T04:58:24.517Z,11.90
2019-04-16T04:59:24.533Z,11.60
2019-04-16T05:00:24.522Z,10.60
2019-04-16T05:01:24.490Z,10.90
2019-04-16T05:02:24.485Z,10.60
2019-04-16T05:03:24.494Z,10.80
2019-04-16T05:04:24.507Z,10.20
2019-04-16T05:05:25.846Z,10.60
2019-04-16T05:06:27.798Z,10.60
2019-04-16T05:07:25.680Z,11.10
2019-04-16T05:08:24.441Z,10.30
2019-04-16T05:09:24.472Z,10.80
2019-04-16T05:10:25.052Z,10.60
2019-04-16T05:11:24.421Z,10.80
2019-04-16T05:12:24.414Z,10.50
2019-04-16T05:13:25.298Z,10.50
2019-04-16T05:14:25.938Z,11.20
2019-04-16T05:15:26.490Z,9.00
2019-04-16T05:16:24.385Z,11.40
2019-04-16T05:17:24.875Z,10.70
2019-04-16T05:18:25.140Z,10.60
2019-04-16T05:19:24.386Z,10.80
2019-04-16T05:20:24.400Z,10.20
2019-04-16T05:21:24.412Z,9.40
2019-04-16T05:22:24.352Z,10.90
2019-04-16T05:23:25.698Z,11.10
2019-04-16T05:24:28.891Z,13.70
2019-04-16T05:25:24.369Z,11.00
2019-04-16T05:26:24.322Z,11.30
2019-04-16T05:27:24.314Z,10.20
2019-04-16T05:28:24.309Z,8.90
2019-04-16T05:29:24.303Z,9.60
2019-04-16T05:30:24.332Z,8.90
2019-04-16T05:31:25.680Z,10.90
2019-04-16T05:32:25.874Z,10.20
2019-04-16T05:33:24.285Z,10.10
2019-04-16T05:34:24.274Z,8.70
2019-04-16T05:35:24.297Z,8.60
2019-04-16T05:36:24.270Z,9.80
2019-04-16T05:37:24.274Z,10.90
2019-04-16T05:38:24.800Z,11.50
2019-04-16T05:39:26.687Z,9.90
2019-04-16T05:40:24.294Z,11.20
2019-04-16T05:41:24.262Z,10.00
2019-04-16T05:42:25.890Z,8.60
2019-04-16T05:43:24.233Z,9.10
2019-04-16T05:44:24.224Z,9.20
2019-04-16T05:45:24.249Z,9.40
2019-04-16T05:46:24.211Z,8.80
2019-04-16T05:47:24.209Z,8.80
2019-04-16T05:48:24.215Z,8.10
2019-04-16T05:49:25.633Z,8.70
2019-04-16T05:50:28.769Z,8.60
2019-04-16T05:51:24.192Z,9.00
2019-04-16T05:52:24.185Z,8.40
2019-04-16T05:53:24.213Z,8.50
2019-04-16T05:54:24.200Z,9.60
2019-04-16T05:55:24.203Z,9.20
2019-04-16T05:56:24.989Z,8.90
2019-04-16T05:57:26.293Z,9.20
2019-04-16T05:58:24.159Z,10.00
2019-04-16T05:59:24.159Z,10.60
2019-04-16T06:00:24.192Z,10.90
2019-04-16T06:01:24.149Z,10.90
2019-04-16T06:02:24.145Z,10.80
2019-04-16T06:03:24.138Z,11.10
2019-04-16T06:04:25.524Z,9.90
2019-04-16T06:05:26.797Z,10.60
2019-04-16T06:06:24.132Z,10.50
2019-04-16T06:07:24.120Z,10.90
2019-04-16T06:08:24.120Z,10.50
2019-04-16T06:09:24.123Z,10.00
2019-04-16T06:10:24.159Z,10.60
2019-04-16T06:11:29.114Z,10.60
2019-04-16T06:12:24.107Z,9.70
2019-04-16T06:13:24.105Z,10.30
2019-04-16T06:14:26.143Z,10.50
2019-04-16T06:15:24.192Z,10.70
2019-04-16T06:16:25.639Z,10.30
2019-04-16T06:17:25.882Z,10.40
2019-04-16T06:18:24.108Z,10.40
2019-04-16T06:19:24.253Z,10.90
2019-04-16T06:20:24.117Z,10.80
2019-04-16T06:21:25.750Z,10.10
2019-04-16T06:22:28.345Z,10.10
2019-04-16T06:23:24.082Z,10.00
2019-04-16T06:24:24.075Z,10.30
2019-04-16T06:25:24.126Z,10.40
2019-04-16T06:26:24.079Z,10.30
2019-04-16T06:27:24.068Z,10.70
2019-04-16T06:28:24.109Z,10.60
2019-04-16T06:29:25.405Z,10.00
2019-04-16T06:30:24.072Z,9.90
2019-04-16T06:31:24.096Z,10.80
2019-04-16T06:32:24.065Z,10.60
2019-04-16T06:33:25.017Z,10.30
2019-04-16T06:34:24.669Z,10.40
2019-04-16T06:35:24.059Z,10.80
2019-04-16T06:36:24.088Z,10.50
2019-04-16T06:37:27.392Z,9.90
2019-04-16T06:38:24.063Z,10.40
2019-04-16T06:39:26.542Z,10.20
2019-04-16T06:40:24.057Z,10.10
2019-04-16T06:41:24.105Z,10.20
2019-04-16T06:42:24.053Z,9.60
2019-04-16T06:43:26.145Z,10.00
2019-04-16T06:44:24.054Z,10.00
2019-04-16T06:45:24.068Z,10.00
2019-04-16T06:46:24.085Z,10.60
2019-04-16T06:47:24.059Z,10.50
2019-04-16T06:48:24.053Z,10.20
2019-04-16T06:49:24.068Z,10.40
2019-04-16T06:50:32.445Z,10.90
2019-04-16T06:51:24.105Z,10.40
2019-04-16T06:52:24.062Z,11.00
2019-04-16T06:53:25.059Z,11.10
2019-04-16T06:54:25.591Z,11.80
2019-04-16T06:55:24.059Z,11.70
2019-04-16T06:56:24.089Z,11.60
2019-04-16T06:57:26.747Z,12.60
2019-04-16T06:58:27.309Z,12.80
2019-04-16T06:59:26.383Z,13.10
2019-04-16T07:00:24.058Z,13.40
2019-04-16T07:01:24.056Z,14.00
2019-04-16T07:02:25.009Z,13.30
2019-04-16T07:03:27.046Z,12.40
2019-04-16T07:04:24.081Z,13.20
2019-04-16T07:05:24.137Z,13.30
2019-04-16T07:06:24.065Z,12.90
2019-04-16T07:07:24.093Z,12.70
2019-04-16T07:08:36.361Z,12.10
2019-04-16T07:09:25.985Z,12.80
2019-04-16T07:10:25.431Z,12.00
2019-04-16T07:11:24.216Z,11.70
2019-04-16T07:12:24.112Z,11.30
2019-04-16T07:13:24.074Z,11.20
2019-04-16T07:14:24.086Z,11.50
2019-04-16T07:15:28.141Z,11.10
2019-04-16T07:16:27.889Z,10.60
2019-04-16T07:17:24.121Z,10.90
2019-04-16T07:18:24.090Z,10.80
2019-04-16T07:19:24.092Z,11.20
2019-04-16T07:20:24.099Z,10.80
2019-04-16T07:21:24.096Z,11.30
2019-04-16T07:22:24.128Z,11.90
2019-04-16T07:23:25.539Z,11.30
2019-04-16T07:24:29.331Z,10.90
2019-04-16T07:25:27.390Z,11.00
2019-04-16T07:26:24.113Z,10.80
2019-04-16T07:27:24.116Z,10.90
2019-04-16T07:28:25.842Z,10.90
2019-04-16T07:29:24.167Z,11.30
2019-04-16T07:30:24.191Z,11.10
2019-04-16T07:31:33.427Z,11.00
2019-04-16T07:32:24.135Z,10.30
2019-04-16T07:33:24.173Z,10.50
2019-04-16T07:34:24.141Z,10.30
2019-04-16T07:35:27.023Z,10.80
2019-04-16T07:36:26.733Z,9.70
2019-04-16T07:37:24.176Z,11.00
2019-04-16T07:38:24.193Z,9.80
2019-04-16T07:39:30.195Z,10.10
2019-04-16T07:40:24.176Z,9.80
2019-04-16T07:41:24.177Z,9.80
2019-04-16T07:43:24.213Z,10.50
2019-04-16T07:43:47.021Z,9.50
2019-04-16T07:44:24.188Z,9.70
2019-04-16T07:45:24.191Z,9.20
2019-04-16T07:46:24.196Z,9.10
2019-04-16T07:47:24.205Z,9.00
2019-04-16T07:48:24.236Z,9.30
2019-04-16T07:49:26.512Z,8.00
2019-04-16T07:50:24.217Z,7.60
2019-04-16T07:51:24.220Z,7.60
2019-04-16T07:52:24.231Z,8.20
2019-04-16T07:53:24.262Z,7.50
2019-04-16T07:54:24.240Z,7.70
2019-04-16T07:55:26.518Z,8.00
2019-04-16T07:56:24.246Z,8.30
2019-04-16T07:57:24.253Z,7.40
2019-04-16T07:58:24.294Z,7.10
2019-04-16T07:59:24.266Z,7.00
2019-04-16T08:00:24.270Z,6.90
2019-04-16T08:01:24.274Z,6.80
2019-04-16T08:02:24.301Z,7.40
2019-04-16T08:03:26.872Z,7.40
2019-04-16T08:04:29.093Z,7.10
2019-04-16T08:05:27.500Z,6.40
2019-04-16T08:06:24.301Z,7.60
2019-04-16T08:07:24.313Z,7.70
2019-04-16T08:08:25.331Z,7.50
2019-04-16T08:09:28.969Z,5.70
2019-04-16T08:10:24.327Z,6.50
2019-04-16T08:11:24.330Z,7.40
2019-04-16T08:12:30.579Z,7.70
2019-04-16T08:13:24.346Z,7.70
2019-04-16T08:14:24.371Z,7.30
2019-04-16T08:15:24.354Z,7.70
2019-04-16T08:16:24.357Z,7.80
2019-04-16T08:17:24.366Z,7.70
2019-04-16T08:18:24.370Z,7.70
2019-04-16T08:19:36.014Z,7.70
2019-04-16T08:20:24.377Z,7.10
2019-04-16T08:21:24.389Z,7.70
2019-04-16T08:22:24.420Z,6.90
2019-04-16T08:23:24.421Z,7.60
2019-04-16T08:24:25.433Z,7.30
2019-04-16T08:25:24.408Z,7.50
2019-04-16T08:26:24.421Z,7.50
2019-04-16T08:27:24.430Z,7.40
2019-04-16T08:28:24.437Z,7.30
2019-04-16T08:29:26.503Z,7.70
2019-04-16T08:30:24.450Z,6.30
2019-04-16T08:31:24.463Z,7.60
2019-04-16T08:32:25.917Z,7.90
2019-04-16T08:33:28.259Z,7.70
2019-04-16T08:34:24.528Z,7.60
2019-04-16T08:35:24.488Z,7.40
2019-04-16T08:36:24.494Z,7.70
2019-04-16T08:37:24.510Z,7.70
2019-04-16T08:38:26.176Z,7.70
2019-04-16T08:39:24.545Z,7.90
2019-04-16T08:40:24.527Z,7.20
2019-04-16T08:41:24.534Z,11.20
2019-04-16T08:42:26.536Z,7.80
2019-04-16T08:43:26.663Z,7.70
2019-04-16T08:44:24.587Z,7.40
2019-04-16T08:45:24.602Z,8.00
2019-04-16T08:46:24.575Z,7.50
2019-04-16T08:47:24.576Z,8.00
2019-04-16T08:48:24.591Z,6.70
2019-04-16T08:49:24.604Z,7.70
2019-04-16T08:50:26.107Z,7.80
2019-04-16T08:51:30.573Z,9.00
2019-04-16T08:52:24.625Z,6.80
2019-04-16T08:53:24.662Z,7.60
2019-04-16T08:54:24.647Z,7.80
2019-04-16T08:55:24.684Z,8.70
2019-04-16T08:56:24.658Z,7.90
2019-04-16T08:57:24.664Z,7.60
2019-04-16T08:58:24.673Z,7.80
2019-04-16T08:59:24.701Z,8.00
2019-04-16T09:00:24.716Z,8.40
2019-04-16T09:01:24.700Z,7.90
2019-04-16T09:02:27.022Z,7.20
2019-04-16T09:03:26.887Z,7.60
2019-04-16T09:04:24.723Z,7.70
2019-04-16T09:05:24.764Z,7.60
2019-04-16T09:06:24.746Z,7.90
2019-04-16T09:07:24.752Z,7.70
2019-04-16T09:08:24.759Z,7.80
2019-04-16T09:09:25.584Z,7.80
2019-04-16T09:10:29.993Z,7.80
2019-04-16T09:11:24.788Z,8.20
2019-04-16T09:12:24.944Z,6.60
2019-04-16T09:13:24.816Z,6.10
2019-04-16T09:14:25.803Z,7.80
2019-04-16T09:15:27.191Z,7.70
2019-04-16T09:16:24.838Z,7.50
2019-04-16T09:17:24.893Z,7.20
2019-04-16T09:18:24.851Z,8.00
2019-04-16T09:19:24.860Z,8.40
2019-04-16T09:20:24.901Z,8.30
2019-04-16T09:21:27.811Z,8.00
2019-04-16T09:22:24.892Z,8.00
2019-04-16T09:23:26.721Z,7.60
2019-04-16T09:24:24.910Z,8.30
2019-04-16T09:25:24.991Z,6.70
2019-04-16T09:26:24.924Z,7.90
2019-04-16T09:27:28.555Z,7.60
2019-04-16T09:28:26.236Z,8.00
2019-04-16T09:29:24.951Z,7.90
2019-04-16T09:30:24.993Z,7.80
2019-04-16T09:31:25.005Z,7.90
2019-04-16T09:32:28.255Z,7.20
2019-04-16T09:33:24.996Z,7.20
2019-04-16T09:34:25.014Z,6.70
2019-04-16T09:35:25.094Z,7.70
2019-04-16T09:36:25.056Z,8.30
2019-04-16T09:37:25.522Z,8.20
2019-04-16T09:38:25.046Z,7.70
2019-04-16T09:39:25.063Z,7.00
2019-04-16T09:40:25.070Z,6.90
2019-04-16T09:41:25.106Z,6.40
2019-04-16T09:42:25.106Z,8.10
2019-04-16T09:43:25.090Z,7.60
2019-04-16T09:44:29.736Z,7.50
2019-04-16T09:45:25.433Z,8.30
2019-04-16T09:46:49.077Z,7.60
2019-04-16T09:47:25.140Z,7.80
2019-04-16T09:48:26.068Z,9.10
2019-04-16T09:49:25.385Z,9.20
2019-04-16T09:50:25.226Z,10.10
2019-04-16T09:51:26.236Z,7.80
2019-04-16T09:52:25.435Z,7.50
2019-04-16T09:53:33.494Z,8.40
2019-04-16T09:54:25.223Z,8.90
2019-04-16T09:55:25.249Z,8.50
2019-04-16T09:56:28.878Z,8.00
2019-04-16T09:57:25.245Z,8.10
2019-04-16T09:58:25.269Z,8.60
2019-04-16T09:59:25.268Z,8.20
2019-04-16T10:00:25.277Z,7.50
2019-04-16T10:01:25.356Z,7.90
2019-04-16T10:02:25.336Z,8.20
2019-04-16T10:03:28.135Z,8.80
2019-04-16T10:04:26.258Z,9.80
2019-04-16T10:05:26.497Z,9.70
2019-04-16T10:06:25.410Z,9.90
2019-04-16T10:07:25.412Z,7.90
2019-04-16T10:08:25.638Z,8.30
2019-04-16T10:09:25.386Z,6.60
2019-04-16T10:10:28.320Z,7.60
2019-04-16T10:11:25.410Z,6.00
2019-04-16T10:12:25.541Z,7.90
2019-04-16T10:13:32.687Z,8.10
2019-04-16T10:14:25.448Z,8.10
2019-04-16T10:15:25.602Z,8.40
2019-04-16T10:16:25.463Z,8.00
2019-04-16T10:17:25.498Z,8.20
2019-04-16T10:18:25.508Z,8.20
2019-04-16T10:19:25.521Z,8.30
2019-04-16T10:20:25.517Z,8.60
2019-04-16T10:21:28.316Z,8.80
2019-04-16T10:22:25.559Z,7.30
2019-04-16T10:23:25.660Z,7.30
2019-04-16T10:24:25.590Z,8.00
2019-04-16T10:25:25.587Z,7.90
2019-04-16T10:26:25.601Z,7.80
2019-04-16T10:27:25.619Z,8.30
2019-04-16T10:28:25.597Z,7.20
2019-04-16T10:29:25.643Z,9.10
2019-04-16T10:30:25.800Z,8.60
2019-04-16T10:31:25.747Z,9.30
2019-04-16T10:32:25.673Z,9.00
2019-04-16T10:33:25.894Z,8.50
2019-04-16T10:34:25.679Z,8.70
2019-04-16T10:35:25.702Z,9.10
2019-04-16T10:36:25.701Z,8.10
2019-04-16T10:37:25.739Z,6.70
2019-04-16T10:38:25.735Z,8.50
2019-04-16T10:39:25.892Z,8.20
2019-04-16T10:40:25.754Z,8.20
2019-04-16T10:41:25.780Z,7.70
2019-04-16T10:42:25.808Z,7.50
2019-04-16T10:43:25.816Z,8.00
2019-04-16T10:44:25.819Z,8.20
2019-04-16T10:45:25.812Z,9.00
2019-04-16T10:46:25.901Z,7.70
2019-04-16T10:47:25.865Z,8.30
2019-04-16T10:48:25.881Z,8.90
2019-04-16T10:49:25.866Z,8.50
2019-04-16T10:50:25.924Z,8.40
2019-04-16T10:51:25.922Z,9.20
2019-04-16T10:52:25.980Z,8.90
2019-04-16T10:53:25.918Z,8.80
2019-04-16T10:54:25.936Z,9.00
2019-04-16T10:55:25.944Z,8.60
2019-04-16T10:56:26.017Z,9.00
2019-04-16T10:57:26.010Z,8.30
2019-04-16T10:58:26.091Z,9.00
2019-04-16T10:59:26.003Z,7.90
2019-04-16T11:00:26.014Z,8.00
2019-04-16T11:01:30.347Z,7.80
2019-04-16T11:02:28.667Z,7.30
2019-04-16T11:03:28.650Z,7.50
2019-04-16T11:04:26.078Z,7.60
2019-04-16T11:05:26.104Z,7.50
2019-04-16T11:06:26.103Z,5.40
2019-04-16T11:07:26.156Z,7.70
2019-04-16T11:08:26.163Z,7.30
2019-04-16T11:09:26.145Z,7.70
2019-04-16T11:10:26.179Z,7.90
2019-04-16T11:11:26.197Z,8.60
2019-04-16T11:12:26.188Z,8.90
2019-04-16T11:13:26.227Z,6.30
2019-04-16T11:14:26.221Z,7.90
2019-04-16T11:15:26.224Z,8.10
2019-04-16T11:16:26.262Z,8.20
2019-04-16T11:17:26.287Z,7.80
2019-04-16T11:18:26.312Z,8.50
2019-04-16T11:19:26.291Z,8.30
2019-04-16T11:20:26.319Z,8.70
2019-04-16T11:21:26.303Z,8.10
2019-04-16T11:22:26.313Z,7.80
2019-04-16T11:23:26.353Z,8.80
2019-04-16T11:24:26.351Z,8.70
2019-04-16T11:25:26.354Z,7.70
2019-04-16T11:26:26.365Z,8.20
2019-04-16T11:27:26.379Z,8.50
2019-04-16T11:28:26.427Z,9.40
2019-04-16T11:29:26.427Z,9.00
2019-04-16T11:30:26.453Z,9.40
2019-04-16T11:31:26.430Z,9.90
2019-04-16T11:32:26.482Z,9.60
2019-04-16T11:33:27.658Z,9.50
2019-04-16T11:34:26.491Z,9.30
2019-04-16T11:35:26.482Z,9.60
2019-04-16T11:36:30.548Z,9.50
2019-04-16T11:37:26.541Z,9.10
2019-04-16T11:38:26.553Z,8.70
2019-04-16T11:39:26.545Z,9.00
2019-04-16T11:40:26.567Z,9.50
2019-04-16T11:41:26.564Z,9.20
2019-04-16T11:42:26.580Z,9.40
2019-04-16T11:43:26.615Z,9.00
2019-04-16T11:44:26.629Z,9.20
2019-04-16T11:45:26.626Z,9.10
2019-04-16T11:46:26.671Z,8.90
2019-04-16T11:47:28.161Z,9.40
2019-04-16T11:48:26.712Z,9.20
2019-04-16T11:49:26.707Z,10.80
2019-04-16T11:50:26.722Z,9.40
2019-04-16T11:51:26.746Z,9.00
2019-04-16T11:52:26.741Z,9.30
2019-04-16T11:53:26.764Z,9.50
2019-04-16T11:54:26.772Z,9.80
2019-04-16T11:55:26.806Z,9.10
2019-04-16T11:56:26.782Z,9.60
2019-04-16T11:57:32.786Z,9.00
2019-04-16T11:58:26.865Z,9.30
2019-04-16T11:59:26.963Z,9.10
2019-04-16T12:00:26.842Z,9.10
2019-04-16T12:01:26.903Z,8.40
2019-04-16T12:02:26.867Z,8.90
2019-04-16T12:03:26.909Z,9.70
2019-04-16T12:04:26.931Z,9.20
2019-04-16T12:05:26.950Z,9.30
2019-04-16T12:06:28.614Z,9.70
2019-04-16T12:07:26.967Z,9.60
2019-04-16T12:08:27.097Z,9.00
2019-04-16T12:09:27.048Z,10.00
2019-04-16T12:10:27.018Z,9.60
2019-04-16T12:11:27.023Z,9.50
2019-04-16T12:12:27.009Z,9.10
2019-04-16T12:13:27.041Z,9.50
2019-04-16T12:14:32.279Z,9.00
2019-04-16T12:15:27.090Z,9.70
2019-04-16T12:16:27.093Z,9.30
2019-04-16T12:17:27.117Z,9.40
2019-04-16T12:18:27.088Z,9.80
2019-04-16T12:19:27.127Z,8.50
2019-04-16T12:20:27.130Z,9.10
2019-04-16T12:21:27.167Z,9.80
2019-04-16T12:22:27.147Z,10.00
2019-04-16T12:23:27.155Z,9.70
2019-04-16T12:24:27.248Z,9.50
2019-04-16T12:25:29.263Z,9.60
2019-04-16T12:26:27.325Z,9.50
2019-04-16T12:27:27.213Z,9.70
2019-04-16T12:28:27.386Z,9.60
2019-04-16T12:29:27.269Z,9.90
2019-04-16T12:30:27.273Z,9.40
2019-04-16T12:31:27.280Z,9.30
2019-04-16T12:32:27.450Z,9.70
2019-04-16T12:33:27.305Z,9.10
2019-04-16T12:34:27.329Z,9.10
2019-04-16T12:35:27.357Z,9.10
2019-04-16T12:36:27.339Z,9.10
2019-04-16T12:37:27.393Z,9.20
2019-04-16T12:38:27.437Z,8.50
2019-04-16T12:39:27.412Z,9.00
2019-04-16T12:40:27.420Z,8.60
2019-04-16T12:41:27.402Z,9.10
2019-04-16T12:42:27.418Z,9.10
2019-04-16T12:43:27.508Z,8.50
2019-04-16T12:44:27.447Z,8.90
2019-04-16T12:45:27.514Z,8.70
2019-04-16T12:46:27.473Z,9.50
2019-04-16T12:47:27.491Z,9.40
2019-04-16T12:48:27.540Z,9.40
2019-04-16T12:49:27.522Z,7.90
2019-04-16T12:50:27.607Z,9.20
2019-04-16T12:51:27.534Z,8.90
2019-04-16T12:52:27.549Z,8.60
2019-04-16T12:53:27.556Z,9.20
2019-04-16T12:54:27.593Z,9.30
2019-04-16T12:55:31.472Z,8.70
2019-04-16T12:56:27.645Z,8.80
2019-04-16T12:57:27.617Z,9.40
2019-04-16T12:58:27.623Z,10.20
2019-04-16T12:59:27.636Z,9.80
2019-04-16T13:00:31.506Z,10.20
2019-04-16T13:01:27.656Z,9.10
2019-04-16T13:02:27.668Z,9.60
2019-04-16T13:03:27.684Z,9.50
2019-04-16T13:04:27.701Z,9.40
2019-04-16T13:05:27.754Z,9.80
2019-04-16T13:06:27.719Z,10.20
2019-04-16T13:07:27.733Z,8.90
2019-04-16T13:08:27.753Z,10.10
2019-04-16T13:09:27.758Z,9.70
2019-04-16T13:10:27.794Z,9.40
2019-04-16T13:11:27.787Z,10.00